Pagrindinis puslapis
METAR-TAF:

METAR-TAF

Oro uostai :

Providensijos sala, Kolumbija

platuma: 13-22N, ilguma: 081-21W, Aukštis: 6 m

Dabartinis oras

Ataskaita buvo paskelbta 1 valandą ir 20 minutes, ne 16:00 UTC
Vėjas 4 kt nuo kintamojo kryptimis
Temperatūra 32°C
Drėgmė 71%
Slėgis 1014 hPa
Matomumas 10 km arba daugiau
Mažai debesys ne aukštis 1800 ft

METAR: SKPV 171600Z VRB04KT 9999 FEW018 32/26 A2994

Laikas: 12:20 (17:20 UTC)


TAF: trūkstamas

Orai ataskaitas ir orų prognozės (METAR, TAF).

turimą stotys yra geltonos ir raudonos taškus žemėlapyje.

Perkelti pele per norėdami pamatyti stoties vardą.

Tada spustelėkite, norėdami matyti oro stebėjimo ir prognozės.

Norėdami pakeisti žemėlapį: spustelėkite ant žalios mygtukų su juodo kryžiaus žemyn,; žalią mygtuką su brūkšneliu, jei norite nutolinti; arba žalių rodyklių gretimoms žemėlapius.


METAR-TAF: